createdAt,value
2023-03-29T00:00:14.356Z,15.87
2023-03-29T00:03:04.325Z,16.83
2023-03-29T00:05:35.227Z,16.33
2023-03-29T00:08:04.520Z,18.40
2023-03-29T00:10:33.799Z,18.87
2023-03-29T00:13:02.854Z,15.70
2023-03-29T00:15:30.544Z,18.17
2023-03-29T00:17:58.573Z,18.30
2023-03-29T00:20:26.384Z,14.93
2023-03-29T00:22:54.277Z,16.70
2023-03-29T00:25:21.831Z,14.63
2023-03-29T00:27:50.063Z,15.13
2023-03-29T00:30:17.756Z,17.63
2023-03-29T00:32:46.204Z,19.17
2023-03-29T00:35:13.968Z,15.73
2023-03-29T00:37:41.953Z,17.47
2023-03-29T00:40:11.243Z,19.53
2023-03-29T00:42:38.810Z,16.20
2023-03-29T00:45:19.122Z,16.50
2023-03-29T00:48:17.540Z,16.17
2023-03-29T00:51:03.478Z,11.33
2023-03-29T00:53:35.957Z,18.60
2023-03-29T00:56:17.554Z,14.87
2023-03-29T00:58:55.309Z,12.23
2023-03-29T01:01:38.213Z,12.93
2023-03-29T01:04:18.471Z,13.77
2023-03-29T01:06:53.226Z,16.97
2023-03-29T01:09:24.088Z,15.67
2023-03-29T01:11:55.425Z,11.77
2023-03-29T01:14:37.806Z,14.30
2023-03-29T01:17:06.634Z,17.43
2023-03-29T01:19:47.823Z,15.80
2023-03-29T01:22:33.806Z,13.80
2023-03-29T01:26:00.020Z,13.23
2023-03-29T01:28:34.347Z,16.40
2023-03-29T01:31:03.832Z,18.70
2023-03-29T01:33:39.001Z,13.47
2023-03-29T01:36:16.640Z,13.97
2023-03-29T01:38:55.708Z,10.93
2023-03-29T01:41:31.974Z,14.40
2023-03-29T01:44:08.255Z,14.30
2023-03-29T01:46:52.479Z,16.53
2023-03-29T01:49:42.328Z,17.13
2023-03-29T01:52:21.713Z,14.37
2023-03-29T01:54:54.977Z,17.30
2023-03-29T01:57:25.440Z,16.00
2023-03-29T01:59:55.968Z,14.80
2023-03-29T02:02:27.401Z,15.43
2023-03-29T02:04:59.413Z,13.53
2023-03-29T02:07:30.891Z,14.77
2023-03-29T02:09:58.898Z,16.70
2023-03-29T02:12:27.072Z,14.87
2023-03-29T02:14:55.154Z,15.37
2023-03-29T02:17:25.514Z,11.90
2023-03-29T02:19:58.220Z,14.73
2023-03-29T02:22:36.841Z,13.43
2023-03-29T02:25:09.046Z,11.47
2023-03-29T02:27:38.127Z,15.80
2023-03-29T02:30:10.984Z,11.77
2023-03-29T02:32:40.271Z,12.27
2023-03-29T02:35:14.223Z,16.07
2023-03-29T02:37:47.840Z,14.50
2023-03-29T02:40:17.296Z,17.93
2023-03-29T02:42:46.377Z,16.63
2023-03-29T02:45:17.275Z,13.60
2023-03-29T02:47:51.971Z,11.97
2023-03-29T02:50:20.477Z,11.50
2023-03-29T02:52:55.251Z,12.17
2023-03-29T02:55:25.247Z,14.20
2023-03-29T02:57:53.123Z,12.57
2023-03-29T03:00:23.460Z,13.37
2023-03-29T03:02:52.232Z,13.60
2023-03-29T03:05:20.400Z,12.43
2023-03-29T03:07:48.396Z,16.77
2023-03-29T03:10:16.193Z,11.20
2023-03-29T03:12:44.167Z,11.83
2023-03-29T03:15:12.237Z,12.83
2023-03-29T03:17:41.166Z,12.63
2023-03-29T03:20:13.812Z,13.67
2023-03-29T03:22:45.722Z,15.23
2023-03-29T03:25:13.319Z,13.53
2023-03-29T03:27:41.499Z,17.57
2023-03-29T03:30:09.983Z,11.27
2023-03-29T03:33:15.693Z,16.43
2023-03-29T03:36:10.546Z,12.93
2023-03-29T03:38:38.868Z,13.70
2023-03-29T03:41:07.363Z,12.60
2023-03-29T03:43:35.796Z,17.20
2023-03-29T03:46:03.546Z,11.87
2023-03-29T03:48:31.778Z,13.93
2023-03-29T03:51:07.483Z,16.93
2023-03-29T03:53:36.571Z,13.23
2023-03-29T03:56:30.061Z,12.97
2023-03-29T03:59:09.816Z,12.60
2023-03-29T04:01:50.514Z,16.63
2023-03-29T04:04:23.122Z,20.33
2023-03-29T04:07:02.910Z,14.43
2023-03-29T04:10:02.127Z,18.10
2023-03-29T04:12:32.660Z,15.03
2023-03-29T04:15:01.328Z,14.47
2023-03-29T04:17:30.133Z,17.33
2023-03-29T04:20:12.666Z,17.47
2023-03-29T04:22:41.915Z,13.57
2023-03-29T04:25:11.867Z,16.50
2023-03-29T04:27:49.347Z,19.37
2023-03-29T04:30:41.862Z,19.57
2023-03-29T04:33:16.557Z,16.97
2023-03-29T04:35:49.459Z,20.80
2023-03-29T04:38:23.395Z,15.73
2023-03-29T04:40:55.277Z,15.87
2023-03-29T04:43:30.210Z,17.87
2023-03-29T04:46:10.468Z,18.47
2023-03-29T04:49:04.236Z,15.77
2023-03-29T04:51:37.294Z,17.80
2023-03-29T04:54:05.917Z,19.27
2023-03-29T04:56:47.494Z,15.60
2023-03-29T04:59:33.910Z,18.03
2023-03-29T05:02:05.122Z,19.93
2023-03-29T05:04:33.162Z,20.00
2023-03-29T05:07:10.395Z,20.23
2023-03-29T05:09:38.565Z,16.73
2023-03-29T05:12:06.606Z,19.07
2023-03-29T05:14:47.239Z,15.97
2023-03-29T05:17:15.413Z,18.93
2023-03-29T05:19:43.881Z,12.80
2023-03-29T05:22:11.690Z,17.40
2023-03-29T05:24:39.310Z,26.70
2023-03-29T05:27:21.120Z,19.93
2023-03-29T05:29:59.577Z,19.20
2023-03-29T05:32:41.796Z,20.70
2023-03-29T05:35:11.786Z,18.23
2023-03-29T05:37:40.087Z,16.07
2023-03-29T05:40:10.275Z,28.00
2023-03-29T05:42:59.765Z,22.70
2023-03-29T05:45:29.907Z,21.70
2023-03-29T05:47:58.331Z,30.13
2023-03-29T05:50:26.231Z,25.10
2023-03-29T05:52:56.160Z,39.60
2023-03-29T05:55:24.326Z,33.17
2023-03-29T05:57:52.541Z,35.53
2023-03-29T06:00:24.508Z,31.67
2023-03-29T06:03:13.291Z,40.70
2023-03-29T06:05:49.656Z,34.20
2023-03-29T06:08:18.504Z,39.00
2023-03-29T06:11:06.706Z,42.83
2023-03-29T06:13:54.877Z,45.27
2023-03-29T06:16:22.616Z,41.60
2023-03-29T06:18:50.742Z,37.90
2023-03-29T06:21:18.343Z,36.30
2023-03-29T06:23:46.628Z,37.27
2023-03-29T06:26:17.874Z,45.00
2023-03-29T06:28:48.675Z,34.23
2023-03-29T06:31:19.906Z,31.50
2023-03-29T06:33:51.154Z,34.77
2023-03-29T06:36:35.008Z,32.73
2023-03-29T06:39:08.698Z,28.17
2023-03-29T06:42:05.236Z,24.63
2023-03-29T06:44:58.141Z,40.77
2023-03-29T06:47:30.883Z,27.10
2023-03-29T06:49:59.145Z,21.37
2023-03-29T06:52:40.168Z,47.07
2023-03-29T06:55:08.141Z,30.33
2023-03-29T06:57:36.923Z,34.20
2023-03-29T07:00:18.427Z,26.43
2023-03-29T07:03:20.566Z,28.73
2023-03-29T07:05:52.276Z,9.93
2023-03-29T07:08:22.562Z,9.73
2023-03-29T07:11:15.641Z,9.03
2023-03-29T07:13:52.796Z,5.33
2023-03-29T07:16:21.900Z,6.13
2023-03-29T07:19:01.606Z,6.30
2023-03-29T07:21:47.840Z,12.27
2023-03-29T07:24:17.011Z,6.10
2023-03-29T07:27:00.086Z,4.23
2023-03-29T07:29:32.243Z,8.17
2023-03-29T07:32:00.444Z,7.23
2023-03-29T07:34:52.581Z,5.33
2023-03-29T07:37:26.180Z,9.03
2023-03-29T07:39:54.386Z,9.37
2023-03-29T07:42:45.672Z,6.70
2023-03-29T07:45:17.605Z,10.13
2023-03-29T07:47:59.348Z,7.95
2023-03-29T07:50:32.724Z,5.88
2023-03-29T07:53:03.575Z,5.57
2023-03-29T07:55:32.896Z,13.18
2023-03-29T07:58:26.546Z,9.18
2023-03-29T08:00:54.097Z,6.93
2023-03-29T08:03:42.649Z,8.77
2023-03-29T08:06:10.962Z,10.90
2023-03-29T08:08:38.427Z,9.97
2023-03-29T08:11:11.359Z,10.17
2023-03-29T08:13:53.582Z,6.57
2023-03-29T08:16:26.903Z,7.30
2023-03-29T08:19:05.013Z,11.73
2023-03-29T08:21:51.751Z,11.32
2023-03-29T08:24:21.426Z,7.90
2023-03-29T08:26:53.524Z,7.40
2023-03-29T08:29:21.273Z,11.25
2023-03-29T08:31:49.462Z,12.45
2023-03-29T08:34:17.070Z,6.78
2023-03-29T08:37:03.373Z,7.03
2023-03-29T08:39:41.235Z,5.95
2023-03-29T08:42:34.001Z,5.07
2023-03-29T08:45:10.273Z,6.55
2023-03-29T08:47:59.342Z,6.03
2023-03-29T08:50:41.127Z,8.02
2023-03-29T08:53:18.207Z,10.50
2023-03-29T08:56:10.344Z,10.43
2023-03-29T08:59:01.358Z,6.15
2023-03-29T09:01:36.313Z,8.00
2023-03-29T09:04:14.994Z,6.63
2023-03-29T09:07:03.634Z,6.53
2023-03-29T09:09:38.826Z,5.35
2023-03-29T09:12:38.322Z,5.93
2023-03-29T09:15:43.335Z,6.20
2023-03-29T09:18:55.891Z,5.43
2023-03-29T09:21:52.044Z,5.97
2023-03-29T09:24:33.693Z,6.47
2023-03-29T09:27:27.596Z,7.32
2023-03-29T09:30:13.551Z,6.57
2023-03-29T09:33:08.124Z,6.45
2023-03-29T09:36:10.441Z,8.05
2023-03-29T09:38:42.779Z,5.68
2023-03-29T09:41:19.173Z,13.52
2023-03-29T09:43:48.825Z,6.65
2023-03-29T09:46:40.559Z,4.90
2023-03-29T09:49:17.515Z,6.32
2023-03-29T09:51:49.444Z,6.30
2023-03-29T09:54:18.572Z,6.10
2023-03-29T09:57:19.759Z,6.15
2023-03-29T09:59:50.367Z,5.93
2023-03-29T10:02:21.163Z,9.75
2023-03-29T10:04:58.926Z,7.38
2023-03-29T10:07:44.815Z,5.55
2023-03-29T10:10:32.595Z,6.05
2023-03-29T10:13:04.855Z,8.02
2023-03-29T10:15:32.541Z,7.03
2023-03-29T10:18:04.396Z,6.00
2023-03-29T10:20:36.467Z,4.70
2023-03-29T10:23:08.182Z,3.65
2023-03-29T10:25:43.012Z,4.57
2023-03-29T10:28:17.736Z,14.50
2023-03-29T10:30:52.614Z,11.73
2023-03-29T10:33:24.141Z,4.35
2023-03-29T10:35:51.925Z,7.32
2023-03-29T10:38:22.949Z,4.40
2023-03-29T10:40:54.298Z,9.63
2023-03-29T10:43:34.912Z,5.63
2023-03-29T10:46:19.744Z,5.32
2023-03-29T10:48:55.930Z,6.32
2023-03-29T10:51:24.881Z,6.90
2023-03-29T10:53:52.348Z,5.40
2023-03-29T10:56:40.457Z,5.18
2023-03-29T10:59:11.153Z,5.47
2023-03-29T11:02:13.804Z,9.07
2023-03-29T11:05:03.759Z,15.27
2023-03-29T11:08:02.447Z,4.65
2023-03-29T11:10:41.451Z,6.80
2023-03-29T11:13:08.598Z,5.45
2023-03-29T11:15:36.631Z,3.13
2023-03-29T11:18:25.371Z,4.65
2023-03-29T11:21:27.259Z,8.15
2023-03-29T11:24:22.207Z,4.85
2023-03-29T11:26:58.340Z,2.97
2023-03-29T11:29:39.521Z,6.32
2023-03-29T11:32:44.507Z,4.95
2023-03-29T11:35:36.482Z,6.50
2023-03-29T11:38:32.582Z,5.25
2023-03-29T11:41:19.963Z,5.55
2023-03-29T11:43:49.913Z,5.38
2023-03-29T11:46:25.980Z,5.88
2023-03-29T11:49:06.557Z,5.18
2023-03-29T11:51:54.708Z,10.65
2023-03-29T11:54:48.248Z,5.85
2023-03-29T11:57:38.838Z,5.13
2023-03-29T12:00:14.905Z,6.97
2023-03-29T12:03:09.973Z,6.07
2023-03-29T12:05:46.277Z,9.65
2023-03-29T12:08:20.737Z,7.40
2023-03-29T12:10:56.942Z,6.72
2023-03-29T12:13:46.085Z,9.43
2023-03-29T12:16:19.608Z,8.63
2023-03-29T12:18:50.145Z,8.35
2023-03-29T12:21:23.064Z,5.45
2023-03-29T12:23:53.048Z,6.75
2023-03-29T12:26:20.770Z,10.80
2023-03-29T12:29:17.607Z,8.10
2023-03-29T12:32:06.817Z,8.07
2023-03-29T12:35:10.256Z,9.52
2023-03-29T12:38:26.059Z,5.07
2023-03-29T12:41:23.242Z,6.80
2023-03-29T12:43:55.164Z,4.07
2023-03-29T12:46:34.613Z,9.77
2023-03-29T12:49:09.655Z,7.38
2023-03-29T12:51:40.833Z,6.28
2023-03-29T12:54:13.550Z,5.45
2023-03-29T12:56:43.135Z,8.23
2023-03-29T12:59:11.088Z,5.63
2023-03-29T13:01:42.959Z,13.95
2023-03-29T13:04:37.513Z,4.65
2023-03-29T13:07:07.235Z,7.75
2023-03-29T13:09:50.441Z,5.68
2023-03-29T13:12:39.611Z,3.88
2023-03-29T13:15:07.874Z,3.50
2023-03-29T13:17:49.563Z,10.88
2023-03-29T13:20:48.099Z,6.10
2023-03-29T13:23:44.983Z,5.45
2023-03-29T13:26:34.548Z,5.30
2023-03-29T13:29:11.631Z,6.20
2023-03-29T13:32:01.786Z,4.10
2023-03-29T13:35:07.803Z,6.28
2023-03-29T13:37:47.515Z,7.53
2023-03-29T13:40:30.192Z,6.90
2023-03-29T13:43:19.909Z,7.05
2023-03-29T13:45:56.730Z,27.33
2023-03-29T13:48:30.763Z,7.07
2023-03-29T13:51:21.278Z,6.53
2023-03-29T13:53:57.247Z,13.77
2023-03-29T13:56:37.514Z,21.85
2023-03-29T13:59:19.950Z,6.25
2023-03-29T14:01:54.743Z,9.75
2023-03-29T14:04:26.823Z,9.43
2023-03-29T14:06:56.446Z,5.07
2023-03-29T14:09:28.573Z,6.03
2023-03-29T14:11:58.924Z,10.90
2023-03-29T14:14:29.412Z,7.90
2023-03-29T14:16:57.749Z,6.57
2023-03-29T14:19:34.548Z,7.17
2023-03-29T14:22:07.658Z,11.43
2023-03-29T14:24:48.220Z,6.03
2023-03-29T14:27:16.553Z,9.13
2023-03-29T14:29:48.539Z,13.40
2023-03-29T14:32:19.008Z,6.03
2023-03-29T14:34:51.866Z,15.93
2023-03-29T14:37:24.512Z,10.60
2023-03-29T14:39:54.421Z,9.73
2023-03-29T14:42:27.276Z,7.53
2023-03-29T14:45:04.406Z,7.33
2023-03-29T14:47:34.789Z,11.53
2023-03-29T14:50:05.490Z,8.77
2023-03-29T14:52:34.935Z,9.00
2023-03-29T14:55:04.348Z,8.07
2023-03-29T14:57:37.452Z,15.93
2023-03-29T15:00:39.808Z,9.57
2023-03-29T15:03:14.687Z,8.93
2023-03-29T15:05:48.347Z,6.50
2023-03-29T15:08:32.122Z,16.23
2023-03-29T15:11:02.747Z,22.40
2023-03-29T15:13:32.057Z,10.07
2023-03-29T15:16:04.576Z,15.07
2023-03-29T15:18:40.725Z,11.60
2023-03-29T15:21:11.459Z,7.07
2023-03-29T15:23:53.363Z,12.23
2023-03-29T15:26:34.665Z,13.47
2023-03-29T15:29:17.873Z,8.53
2023-03-29T15:31:57.777Z,8.87
2023-03-29T15:34:28.136Z,7.93
2023-03-29T15:36:58.331Z,6.83
2023-03-29T15:39:30.354Z,9.43
2023-03-29T15:41:59.134Z,11.90
2023-03-29T15:44:32.220Z,9.57
2023-03-29T15:47:00.647Z,17.70
2023-03-29T15:49:28.643Z,14.03
2023-03-29T15:51:56.981Z,16.57
2023-03-29T15:54:24.991Z,7.70
2023-03-29T15:57:01.788Z,12.13
2023-03-29T15:59:31.995Z,10.93
2023-03-29T16:02:01.383Z,12.37
2023-03-29T16:04:29.939Z,7.70
2023-03-29T16:06:58.174Z,8.67
2023-03-29T16:09:26.190Z,11.17
2023-03-29T16:11:56.301Z,13.07
2023-03-29T16:14:27.503Z,11.67
2023-03-29T16:16:58.928Z,9.53
2023-03-29T16:19:28.604Z,5.63
2023-03-29T16:21:58.685Z,10.03
2023-03-29T16:24:33.212Z,18.97
2023-03-29T16:27:03.010Z,7.77
2023-03-29T16:29:31.800Z,12.00
2023-03-29T16:32:01.307Z,12.23
2023-03-29T16:34:30.160Z,36.17
2023-03-29T16:36:58.795Z,16.87
2023-03-29T16:39:27.270Z,12.27
2023-03-29T16:41:55.554Z,14.40
2023-03-29T16:44:25.810Z,15.00
2023-03-29T16:46:54.475Z,17.83
2023-03-29T16:49:22.628Z,22.90
2023-03-29T16:51:50.974Z,30.33
2023-03-29T16:54:19.287Z,24.50
2023-03-29T16:56:48.120Z,47.70
2023-03-29T16:59:16.734Z,37.60
2023-03-29T17:01:45.122Z,11.00
2023-03-29T17:04:13.239Z,15.80
2023-03-29T17:06:43.053Z,11.80
2023-03-29T17:09:10.655Z,15.43
2023-03-29T17:11:38.824Z,18.30
2023-03-29T17:14:07.187Z,12.80
2023-03-29T17:16:35.614Z,14.23
2023-03-29T17:19:03.505Z,14.13
2023-03-29T17:21:31.815Z,10.10
2023-03-29T17:23:59.520Z,12.03
2023-03-29T17:26:28.744Z,11.50
2023-03-29T17:28:56.725Z,14.27
2023-03-29T17:31:25.086Z,11.93
2023-03-29T17:33:53.106Z,11.20
2023-03-29T17:36:24.394Z,11.77
2023-03-29T17:38:52.638Z,19.93
2023-03-29T17:41:20.639Z,12.83
2023-03-29T17:43:51.202Z,10.73
2023-03-29T17:46:22.959Z,14.73
2023-03-29T17:48:51.539Z,16.80
2023-03-29T17:51:21.105Z,18.03
2023-03-29T17:53:51.691Z,19.63
2023-03-29T17:56:22.070Z,24.23
2023-03-29T17:58:51.327Z,17.60
2023-03-29T18:01:20.262Z,14.83
2023-03-29T18:03:49.525Z,16.73
2023-03-29T18:06:20.610Z,14.40
2023-03-29T18:08:49.541Z,15.00
2023-03-29T18:11:22.987Z,18.37
2023-03-29T18:13:56.380Z,20.80
2023-03-29T18:16:24.416Z,19.10
2023-03-29T18:18:53.568Z,18.47
2023-03-29T18:21:22.587Z,23.93
2023-03-29T18:23:53.820Z,18.87
2023-03-29T18:26:23.614Z,25.33
2023-03-29T18:28:52.694Z,24.93
2023-03-29T18:31:21.341Z,23.37
2023-03-29T18:33:50.414Z,19.27
2023-03-29T18:36:18.682Z,19.93
2023-03-29T18:38:47.591Z,21.83
2023-03-29T18:41:16.209Z,21.47
2023-03-29T18:43:47.241Z,21.10
2023-03-29T18:46:17.026Z,17.90
2023-03-29T18:48:45.275Z,16.53
2023-03-29T18:51:13.597Z,20.93
2023-03-29T18:53:43.919Z,18.70
2023-03-29T18:56:12.012Z,20.20
2023-03-29T18:58:40.474Z,16.70
2023-03-29T19:01:10.052Z,21.47
2023-03-29T19:03:38.560Z,17.80
2023-03-29T19:06:07.143Z,18.23
2023-03-29T19:08:37.776Z,21.27
2023-03-29T19:11:07.749Z,18.60
2023-03-29T19:13:36.429Z,18.03
2023-03-29T19:16:04.896Z,17.67
2023-03-29T19:18:33.739Z,24.43
2023-03-29T19:21:02.650Z,17.63
2023-03-29T19:23:30.889Z,19.60
2023-03-29T19:26:02.760Z,15.63
2023-03-29T19:28:31.896Z,18.67
2023-03-29T19:31:00.903Z,26.30
2023-03-29T19:33:29.751Z,22.43
2023-03-29T19:35:58.061Z,24.80
2023-03-29T19:38:26.555Z,20.57
2023-03-29T19:40:54.497Z,20.27
2023-03-29T19:43:22.773Z,21.70
2023-03-29T19:45:51.401Z,19.70
2023-03-29T19:48:23.958Z,24.13
2023-03-29T19:50:52.731Z,26.47
2023-03-29T19:53:21.471Z,28.13
2023-03-29T19:55:49.680Z,26.57
2023-03-29T19:58:17.653Z,22.90
2023-03-29T20:00:47.704Z,28.60
2023-03-29T20:03:15.990Z,22.37
2023-03-29T20:05:43.864Z,25.87
2023-03-29T20:08:11.777Z,24.23
2023-03-29T20:10:39.724Z,22.13
2023-03-29T20:13:08.024Z,22.40
2023-03-29T20:15:36.095Z,27.10
2023-03-29T20:18:04.410Z,25.77
2023-03-29T20:20:32.177Z,27.37
2023-03-29T20:23:04.754Z,23.03
2023-03-29T20:25:35.796Z,24.27
2023-03-29T20:28:04.922Z,30.97
2023-03-29T20:30:33.037Z,32.93
2023-03-29T20:33:01.917Z,37.90
2023-03-29T20:35:29.670Z,34.50
2023-03-29T20:37:58.605Z,31.87
2023-03-29T20:40:26.913Z,36.40
2023-03-29T20:42:55.391Z,34.73
2023-03-29T20:45:23.165Z,30.53
2023-03-29T20:47:56.214Z,33.00
2023-03-29T20:50:28.376Z,30.27
2023-03-29T20:52:57.473Z,29.73
2023-03-29T20:55:25.626Z,26.00
2023-03-29T20:57:59.942Z,37.80
2023-03-29T21:00:29.094Z,25.03
2023-03-29T21:03:00.547Z,32.87
2023-03-29T21:05:29.866Z,34.93
2023-03-29T21:07:58.057Z,30.03
2023-03-29T21:10:27.890Z,29.33
2023-03-29T21:13:00.624Z,28.00
2023-03-29T21:15:31.182Z,31.93
2023-03-29T21:17:59.685Z,33.43
2023-03-29T21:20:27.780Z,35.43
2023-03-29T21:22:56.116Z,31.67
2023-03-29T21:25:23.958Z,35.13
2023-03-29T21:27:51.841Z,34.27
2023-03-29T21:30:19.557Z,34.53
2023-03-29T21:32:47.443Z,34.80
2023-03-29T21:35:15.121Z,33.87
2023-03-29T21:37:43.083Z,28.33
2023-03-29T21:40:11.513Z,27.20
2023-03-29T21:42:39.628Z,29.83
2023-03-29T21:45:07.580Z,27.57
2023-03-29T21:47:35.564Z,31.43
2023-03-29T21:50:03.265Z,26.97
2023-03-29T21:52:31.660Z,38.87
2023-03-29T21:54:59.293Z,33.63
2023-03-29T21:57:27.193Z,29.30
2023-03-29T21:59:54.990Z,31.43
2023-03-29T22:02:23.135Z,26.37
2023-03-29T22:04:50.935Z,25.13
2023-03-29T22:07:22.836Z,27.47
2023-03-29T22:09:50.525Z,27.93
2023-03-29T22:12:19.054Z,28.67
2023-03-29T22:14:46.772Z,30.90
2023-03-29T22:17:16.016Z,25.80
2023-03-29T22:19:43.749Z,25.37
2023-03-29T22:22:14.507Z,27.30
2023-03-29T22:24:42.656Z,28.00
2023-03-29T22:27:11.930Z,24.83
2023-03-29T22:29:39.637Z,27.37
2023-03-29T22:32:08.029Z,27.87
2023-03-29T22:34:35.789Z,31.53
2023-03-29T22:37:03.585Z,21.10
2023-03-29T22:39:31.238Z,29.30
2023-03-29T22:41:59.050Z,34.20
2023-03-29T22:44:27.160Z,24.50
2023-03-29T22:46:55.800Z,30.50
2023-03-29T22:49:23.346Z,32.10
2023-03-29T22:51:51.729Z,28.73
2023-03-29T22:54:19.257Z,30.90
2023-03-29T22:56:47.107Z,30.50
2023-03-29T22:59:15.853Z,24.20
2023-03-29T23:01:43.733Z,28.40
2023-03-29T23:04:11.595Z,30.27
2023-03-29T23:06:39.641Z,28.90
2023-03-29T23:09:07.170Z,26.27
2023-03-29T23:11:34.993Z,30.23
2023-03-29T23:14:05.976Z,27.83
2023-03-29T23:16:34.104Z,29.43
2023-03-29T23:19:02.908Z,31.73
2023-03-29T23:21:30.736Z,33.40
2023-03-29T23:23:58.486Z,29.00
2023-03-29T23:26:27.827Z,24.27
2023-03-29T23:28:57.493Z,27.67
2023-03-29T23:31:25.463Z,26.37
2023-03-29T23:33:53.129Z,30.17
2023-03-29T23:36:22.991Z,31.60
2023-03-29T23:38:50.659Z,28.13
2023-03-29T23:41:20.213Z,27.77
2023-03-29T23:43:48.402Z,27.23
2023-03-29T23:46:18.990Z,26.53
2023-03-29T23:48:49.216Z,28.13
2023-03-29T23:51:28.267Z,28.83
2023-03-29T23:53:56.919Z,27.20
2023-03-29T23:56:25.221Z,28.13
2023-03-29T23:58:52.953Z,29.57
